Amak Swan — OWKO2 — position and weather

sailwx.info

Track history (hours):
 
Tides and Currents Weather Stations Pressure Air Temp Water Temp Dewpoint Dewpoint Depression Visibility Wind Speed Wind Dir Waves Ship Positions

Amak Swan

Last reported at 2017-Dec-09 15:25 UTC. Time now 2017-Dec-12 04:38 UTC.
Position N 37°29' W 000°29'.

Length 113 m; draft 7.4 m.

Type: Ship (hazmat cat C). MMSI: 220016000.

Date/timePositionNaut miles runAvg speedWind from/ knotsBaromVisibWave heightAir tempDewpointWater temp
2017-Dec-09 15:25N 37°29' W 000°29'610.9
2017-Dec-09 14:55N 37°30' W 000°36'611.0
2017-Dec-09 14:21N 37°30' W 000°43'411.3
2017-Dec-09 14:00N 37°31' W 000°48'611.6
2017-Dec-09 13:30N 37°31' W 000°55'  
2017-Dec-03 03:35N 37°43' W 000°22'112.2
2017-Dec-03 03:30N 37°42' W 000°22'611.9
2017-Dec-03 03:00N 37°37' W 000°27'611.8
2017-Dec-03 02:30N 37°33' W 000°31'811.8
2017-Dec-03 01:52N 37°31' W 000°40'412.6
2017-Dec-03 01:30N 37°31' W 000°46'612.7
2017-Dec-03 01:00N 37°31' W 000°54'7 0.2
2017-Dec-01 07:33N 37°32' W 001°03'112.0
2017-Dec-01 07:28N 37°32' W 001°02'511.8
2017-Dec-01 07:00N 37°31' W 000°55'611.6
2017-Dec-01 06:31N 37°32' W 000°48'3 6.9
2017-Dec-01 06:00N 37°32' W 000°43'3 6.2
2017-Dec-01 05:30N 37°32' W 000°40'3 6.2
2017-Dec-01 05:01N 37°33' W 000°36'3 6.5
2017-Dec-01 04:31N 37°35' W 000°33'3 6.8
2017-Dec-01 04:01N 37°38' W 000°30'3 6.7
2017-Dec-01 03:30N 37°41' W 000°28'3 6.5
2017-Dec-01 03:00N 37°44' W 000°26'4 6.6
2017-Dec-01 02:22N 37°47' W 000°22'3 6.7
2017-Dec-01 01:58N 37°49' W 000°20'5 6.7
2017-Dec-01 01:14N 37°53' W 000°17'3 6.7
2017-Dec-01 00:45N 37°56' W 000°15'2 6.7
2017-Dec-01 00:28N 37°57' W 000°13'208 7.0
2017-Nov-29 18:37N 40°56' E 002°03'1 6.2
2017-Nov-29 18:30N 40°57' E 002°04'4 6.4
2017-Nov-29 17:55N 41°01' E 002°06'4 6.8
2017-Nov-29 17:15N 41°05' E 002°08'311.4
2017-Nov-29 17:01N 41°07' E 002°09'912.0
2017-Nov-29 16:16N 41°16' E 002°11'  
Track history (hours):
 
Tides and Currents Weather Stations Pressure Air Temp Water Temp Dewpoint Dewpoint Depression Visibility Wind Speed Wind Dir Waves Ship Positions

Amak Swan

Last reported at 2017-Dec-09 15:25 UTC. Time now 2017-Dec-12 04:38 UTC.
Position N 37°29' W 000°29'.

Length 113 m; draft 7.4 m.

Type: Ship (hazmat cat C). MMSI: 220016000.

Date/timePositionNaut miles runAvg speedWind from/ knotsBaromVisibWave heightAir tempDewpointWater temp
2017-Dec-09 15:25N 37°29' W 000°29'610.9
2017-Dec-09 14:55N 37°30' W 000°36'611.0
2017-Dec-09 14:21N 37°30' W 000°43'411.3
2017-Dec-09 14:00N 37°31' W 000°48'611.6
2017-Dec-09 13:30N 37°31' W 000°55'  
2017-Dec-03 03:35N 37°43' W 000°22'112.2
2017-Dec-03 03:30N 37°42' W 000°22'611.9
2017-Dec-03 03:00N 37°37' W 000°27'611.8
2017-Dec-03 02:30N 37°33' W 000°31'811.8
2017-Dec-03 01:52N 37°31' W 000°40'412.6
2017-Dec-03 01:30N 37°31' W 000°46'612.7
2017-Dec-03 01:00N 37°31' W 000°54'7 0.2
2017-Dec-01 07:33N 37°32' W 001°03'112.0
2017-Dec-01 07:28N 37°32' W 001°02'511.8
2017-Dec-01 07:00N 37°31' W 000°55'611.6
2017-Dec-01 06:31N 37°32' W 000°48'3 6.9
2017-Dec-01 06:00N 37°32' W 000°43'3 6.2
2017-Dec-01 05:30N 37°32' W 000°40'3 6.2
2017-Dec-01 05:01N 37°33' W 000°36'3 6.5
2017-Dec-01 04:31N 37°35' W 000°33'3 6.8
2017-Dec-01 04:01N 37°38' W 000°30'3 6.7
2017-Dec-01 03:30N 37°41' W 000°28'3 6.5
2017-Dec-01 03:00N 37°44' W 000°26'4 6.6
2017-Dec-01 02:22N 37°47' W 000°22'3 6.7
2017-Dec-01 01:58N 37°49' W 000°20'5 6.7
2017-Dec-01 01:14N 37°53' W 000°17'3 6.7
2017-Dec-01 00:45N 37°56' W 000°15'2 6.7
2017-Dec-01 00:28N 37°57' W 000°13'208 7.0
2017-Nov-29 18:37N 40°56' E 002°03'1 6.2
2017-Nov-29 18:30N 40°57' E 002°04'4 6.4
2017-Nov-29 17:55N 41°01' E 002°06'4 6.8
2017-Nov-29 17:15N 41°05' E 002°08'311.4
2017-Nov-29 17:01N 41°07' E 002°09'912.0
2017-Nov-29 16:16N 41°16' E 002°11'  

Dump ship's entire track history